Fayetteville, Texas
Current Conditions -  °F | °C
As of 8:55 PM on Friday 21 Nov 2014 (Local Time) from K3T5 Reporting Station
Broken Clouds Broken Clouds  
Wind Chill: 68°   Ceiling: 4200
Heat Index: 68°   Visibility: 10mi
Dew Point: 66°   Wind: 7mph
Humidity: 92%   Direction: 150°SSE
Pressure: 30.07"   Gusts: NA
Location:  29.91°N, 96.67°W
Report Text: K3T5 220255Z AUTO 15006KT 10SM SCT022 SCT027 BKN042 20/19 A3007 RMK AO2 T02020188
Loading
Personal Weather Stations






























Interactive Weather Map New forecast layout! Learn more

10-Day Weather Forecast

Advertisements
Track Severe Weather on mobile